Time;durP1;ratioP1;P1;durP2;ratioP2;P2;SDS_P1;SDS_P2;PMS_P1;PMS_P2;Temp;Humidity;BMP_temperature;BMP_pressure;BME280_temperature;BME280_humidity;BME280_pressure;Samples;Min_cycle;Max_cycle;Signal;HPM_P1;HPM_P2
2022/11/03 00:06:50;;;;;;;15.55;7.00;;;;;;;6.81;100.00;100756.03;20898026;28;20053;-75
2022/11/03 00:16:52;;;;;;;21.35;7.90;;;;;;;6.72;100.00;100761.16;20898204;28;20482;-75
2022/11/03 00:26:53;;;;;;;18.60;7.88;;;;;;;6.52;100.00;100762.78;20975252;28;20527;-75
2022/11/03 00:36:55;;;;;;;17.33;7.13;;;;;;;6.40;100.00;100746.22;20985156;28;20518;-75
2022/11/03 00:46:56;;;;;;;14.77;7.28;;;;;;;6.12;100.00;100729.53;20994504;28;20048;-75
2022/11/03 00:56:57;;;;;;;16.42;7.47;;;;;;;6.04;100.00;100722.56;20994042;28;20059;-75
2022/11/03 01:06:59;;;;;;;16.98;6.80;;;;;;;6.05;100.00;100713.91;20992712;28;20076;-76
2022/11/03 01:17:00;;;;;;;16.00;7.00;;;;;;;5.98;100.00;100712.09;21016456;28;20048;-76
2022/11/03 01:27:02;;;;;;;16.25;6.68;;;;;;;5.82;100.00;100706.75;21075490;28;20277;-75
2022/11/03 01:37:03;;;;;;;15.18;7.30;;;;;;;5.72;100.00;100704.94;21074611;28;20082;-77
2022/11/03 01:47:04;;;;;;;16.85;7.30;;;;;;;5.72;100.00;100685.88;20991468;28;20404;-76
2022/11/03 01:57:06;;;;;;;13.38;7.07;;;;;;;5.71;100.00;100666.81;20990160;28;20496;-75
2022/11/03 02:07:07;;;;;;;16.38;6.93;;;;;;;5.71;100.00;100661.63;20988420;28;20327;-76
2022/11/03 02:17:08;;;;;;;18.05;7.05;;;;;;;5.61;100.00;100652.03;20988770;28;20061;-76
2022/11/03 02:27:10;;;;;;;14.05;7.40;;;;;;;5.57;100.00;100629.47;20987605;28;20048;-78
2022/11/03 02:37:11;;;;;;;19.48;8.95;;;;;;;5.55;100.00;100618.19;20986994;28;20455;-78
2022/11/03 02:47:13;;;;;;;21.30;8.82;;;;;;;5.53;100.00;100604.34;20904095;28;20114;-74
2022/11/03 02:57:14;;;;;;;23.15;8.90;;;;;;;5.49;100.00;100576.59;20901631;28;20087;-75
2022/11/03 03:07:16;;;;;;;22.73;8.95;;;;;;;5.45;100.00;100570.50;20901262;28;20048;-76
2022/11/03 03:17:18;;;;;;;19.98;8.45;;;;;;;5.40;100.00;100541.91;20902057;28;20053;-76
2022/11/03 03:27:19;;;;;;;21.23;9.07;;;;;;;5.30;100.00;100527.13;20901174;28;20493;-73
2022/11/03 03:37:20;;;;;;;16.63;7.75;;;;;;;5.36;100.00;100514.16;20898859;28;20055;-73
2022/11/03 03:47:22;;;;;;;17.17;6.85;;;;;;;5.28;100.00;100521.06;20899400;28;20103;-74
2022/11/03 03:57:23;;;;;;;11.65;6.03;;;;;;;5.07;100.00;100513.06;20899463;28;20099;-74
2022/11/03 04:28:05;;;;;;;14.13;7.80;;;;;;;4.95;100.00;100484.44;20922270;28;20462;-75
2022/11/03 04:38:07;;;;;;;9.98;5.63;;;;;;;4.81;100.00;100472.22;21074932;28;20511;-76
2022/11/03 04:48:09;;;;;;;11.10;5.82;;;;;;;4.72;100.00;100466.94;20996635;28;20082;-77
2022/11/03 04:58:10;;;;;;;16.63;7.32;;;;;;;4.66;100.00;100445.28;20994755;28;20417;-72
2022/11/03 05:08:12;;;;;;;10.90;6.00;;;;;;;4.68;100.00;100434.06;20993750;28;20509;-74
2022/11/03 05:18:13;;;;;;;12.77;6.38;;;;;;;4.73;100.00;100424.59;20993506;28;20132;-75
2022/11/03 05:28:15;;;;;;;15.60;7.03;;;;;;;4.55;100.00;100434.78;20991951;28;20102;-74
2022/11/03 05:38:16;;;;;;;15.00;7.00;;;;;;;4.82;100.00;100392.66;20982885;28;20045;-75
2022/11/03 05:48:18;;;;;;;14.93;8.32;;;;;;;4.78;100.00;100363.25;20907400;28;20045;-77
2022/11/03 05:58:19;;;;;;;21.13;10.98;;;;;;;4.76;100.00;100364.97;20906903;28;20099;-75
2022/11/03 06:08:21;;;;;;;14.23;7.88;;;;;;;4.93;100.00;100359.00;20905141;28;20056;-75
2022/11/03 06:18:23;;;;;;;13.00;7.28;;;;;;;5.02;100.00;100356.47;20904519;28;20077;-76
2022/11/03 06:28:24;;;;;;;23.33;10.35;;;;;;;5.14;100.00;100351.38;20903513;28;20049;-74
2022/11/03 06:38:26;;;;;;;18.83;9.32;;;;;;;5.28;100.00;100339.34;20909353;28;20048;-75
2022/11/03 06:48:27;;;;;;;15.48;9.57;;;;;;;5.47;100.00;100323.84;21012887;28;20048;-75
2022/11/03 06:58:29;;;;;;;16.58;10.52;;;;;;;5.59;100.00;100313.47;21001900;28;20083;-72
2022/11/03 07:08:30;;;;;;;19.13;11.77;;;;;;;5.81;100.00;100302.28;20982164;28;20462;-72
2022/11/03 07:18:31;;;;;;;16.60;10.50;;;;;;;5.98;100.00;100296.28;20983391;28;20435;-71
2022/11/03 07:28:33;;;;;;;14.60;8.10;;;;;;;6.02;100.00;100293.69;20983951;28;20056;-71
2022/11/03 07:38:35;;;;;;;15.73;9.80;;;;;;;6.21;100.00;100278.09;20948004;28;20056;-71
2022/11/03 07:48:36;;;;;;;16.95;13.50;;;;;;;6.41;100.00;100264.22;20940726;28;20052;-70
2022/11/03 07:58:37;;;;;;;26.48;18.98;;;;;;;6.49;100.00;100237.34;20935352;28;20052;-70
2022/11/03 08:08:39;;;;;;;15.82;8.95;;;;;;;6.56;100.00;100218.25;20921796;28;20037;-70
2022/11/03 08:18:41;;;;;;;17.48;11.13;;;;;;;6.54;100.00;100230.41;20917702;28;20481;-70
2022/11/03 08:28:42;;;;;;;16.85;8.07;;;;;;;6.76;100.00;100219.06;20942765;28;20076;-70
2022/11/03 08:38:43;;;;;;;14.00;8.13;;;;;;;7.24;100.00;100214.53;20927258;28;20498;-73
2022/11/03 08:48:45;;;;;;;15.30;7.60;;;;;;;7.51;100.00;100195.25;20980041;28;20508;-72
2022/11/03 08:58:46;;;;;;;14.93;7.78;;;;;;;7.79;100.00;100177.69;20974670;28;20079;-72
2022/11/03 09:08:48;;;;;;;16.95;7.13;;;;;;;8.22;100.00;100177.31;20948691;28;20056;-72
2022/11/03 09:19:09;;;;;;;14.68;7.07;;;;;;;8.46;100.00;100150.13;20985871;28;20052;-72
2022/11/03 09:29:10;;;;;;;13.40;6.93;;;;;;;8.63;100.00;100123.88;20990062;28;20082;-72
2022/11/03 09:39:12;;;;;;;14.45;7.43;;;;;;;8.85;100.00;100122.69;20974183;28;20052;-72
2022/11/03 09:49:13;;;;;;;16.67;8.32;;;;;;;9.33;100.00;100127.25;20906624;28;20484;-72
2022/11/03 09:59:14;;;;;;;15.00;7.68;;;;;;;9.68;100.00;100103.19;20905995;28;20497;-72
2022/11/03 10:09:16;;;;;;;13.07;8.27;;;;;;;9.86;100.00;100089.75;20904717;28;20575;-73
2022/11/03 10:19:17;;;;;;;21.50;9.85;;;;;;;10.15;100.00;100075.28;20903867;28;20052;-72
2022/11/03 10:29:19;;;;;;;14.02;8.40;;;;;;;10.41;100.00;100059.13;20903043;28;20053;-72
2022/11/03 10:39:20;;;;;;;13.80;7.43;;;;;;;10.50;100.00;100015.28;20918990;28;20434;-72
2022/11/03 10:49:21;;;;;;;17.65;7.72;;;;;;;10.59;100.00;99995.03;20984449;28;20063;-72
2022/11/03 10:59:22;;;;;;;12.90;6.32;;;;;;;10.75;100.00;99973.72;20983245;28;20409;-72
2022/11/03 11:09:24;;;;;;;17.17;6.57;;;;;;;10.87;100.00;99955.97;20983081;28;20048;-72
2022/11/03 11:19:26;;;;;;;15.85;6.90;;;;;;;11.01;100.00;99939.03;20982120;28;20135;-71
2022/11/03 11:29:27;;;;;;;19.33;7.57;;;;;;;11.25;100.00;99932.28;20981266;28;20488;-71
2022/11/03 11:39:29;;;;;;;14.70;7.70;;;;;;;11.19;100.00;99910.66;20963901;28;20045;-71
2022/11/03 11:49:31;;;;;;;12.98;6.63;;;;;;;11.18;100.00;99904.53;20898077;28;20048;-72
2022/11/03 11:59:32;;;;;;;15.20;6.88;;;;;;;11.10;100.00;99880.28;20897681;28;20053;-71
2022/11/03 12:09:33;;;;;;;17.30;7.18;;;;;;;11.15;100.00;99857.44;20896060;28;20475;-71
2022/11/03 12:19:35;;;;;;;13.88;6.20;;;;;;;11.27;100.00;99838.78;20897342;28;20480;-71
2022/11/03 12:29:37;;;;;;;17.45;7.30;;;;;;;11.43;100.00;99814.75;20899739;28;20052;-71
2022/11/03 12:39:38;;;;;;;13.75;6.55;;;;;;;11.38;100.00;99778.19;21020406;28;20072;-72
2022/11/03 12:49:40;;;;;;;17.08;6.75;;;;;;;11.34;100.00;99762.59;20993836;28;20143;-73
2022/11/03 12:59:41;;;;;;;17.27;6.93;;;;;;;11.18;100.00;99725.50;20992995;28;20082;-74
2022/11/03 13:09:42;;;;;;;18.20;7.38;;;;;;;11.25;100.00;99704.31;20992551;28;20562;-74
2022/11/03 13:19:44;;;;;;;21.35;6.53;;;;;;;11.27;100.00;99662.34;20991474;28;20056;-73
2022/11/03 13:29:45;;;;;;;12.55;6.60;;;;;;;11.39;100.00;99634.91;20990293;28;20071;-74
2022/11/03 13:39:46;;;;;;;16.15;7.13;;;;;;;11.43;100.00;99603.28;20969343;28;20094;-74
2022/11/03 13:49:51;;;;;;;13.73;5.65;;;;;;;11.48;100.00;99614.50;20903795;28;20049;-72
2022/11/03 14:00:15;;;;;;;12.23;5.45;;;;;;;11.73;100.00;99587.47;20903710;28;20134;-71
2022/11/03 14:10:17;;;;;;;17.95;6.65;;;;;;;11.62;100.00;99545.03;20904820;28;20497;-71
2022/11/03 14:20:18;;;;;;;13.60;5.53;;;;;;;11.68;100.00;99529.06;20903120;28;20056;-70
2022/11/03 14:30:20;;;;;;;16.77;5.57;;;;;;;11.41;100.00;99518.63;20901906;28;20492;-71
2022/11/03 14:50:41;;;;;;;12.88;5.45;;;;;;;11.35;100.00;99473.41;20983334;28;20405;-71
2022/11/03 15:00:43;;;;;;;12.90;5.75;;;;;;;11.41;100.00;99453.09;20982192;28;20488;-72
2022/11/03 15:10:44;;;;;;;16.77;5.93;;;;;;;11.31;100.00;99464.81;20983538;28;20052;-72
2022/11/03 15:20:46;;;;;;;14.90;5.30;;;;;;;11.22;100.00;99437.16;20981766;28;20215;-73
2022/11/03 15:30:47;;;;;;;12.63;5.30;;;;;;;10.98;100.00;99404.75;20981270;28;20582;-72
2022/11/03 15:40:49;;;;;;;16.58;5.50;;;;;;;11.00;100.00;99387.22;20952699;28;20099;-72
2022/11/03 15:50:50;;;;;;;22.45;11.32;;;;;;;10.94;100.00;99376.97;20898071;28;20045;-72
2022/11/03 16:00:51;;;;;;;15.65;7.05;;;;;;;10.95;100.00;99385.66;20896574;28;20056;-73
2022/11/03 16:10:53;;;;;;;14.52;6.70;;;;;;;10.78;100.00;99394.09;20910257;28;20064;-73
2022/11/03 16:20:58;;;;;;;16.15;7.45;;;;;;;10.68;100.00;99405.75;20912472;28;20053;-74
2022/11/03 16:30:59;;;;;;;15.02;6.90;;;;;;;10.65;100.00;99387.53;20912749;28;20065;-73
2022/11/03 16:41:01;;;;;;;15.63;7.30;;;;;;;10.64;100.00;99344.81;20942447;28;20102;-73
2022/11/03 16:51:02;;;;;;;14.40;7.55;;;;;;;10.65;100.00;99322.09;20993275;28;20409;-73
2022/11/03 17:01:04;;;;;;;24.98;13.40;;;;;;;10.63;100.00;99295.09;20992497;28;20121;-72
2022/11/03 17:11:05;;;;;;;18.75;11.32;;;;;;;10.62;100.00;99280.31;20937643;28;20489;-73
2022/11/03 17:21:07;;;;;;;21.52;10.68;;;;;;;10.63;100.00;99287.25;20960524;28;20432;-73
2022/11/03 17:31:09;;;;;;;19.98;10.38;;;;;;;10.58;100.00;99292.63;20899904;28;20299;-73
2022/11/03 17:41:10;;;;;;;22.60;10.32;;;;;;;10.54;100.00;99272.72;20915806;28;20056;-73
2022/11/03 17:51:18;;;;;;;19.52;9.93;;;;;;;10.53;100.00;99261.38;20899956;28;20395;-73
2022/11/03 18:01:19;;;;;;;23.45;13.25;;;;;;;10.55;100.00;99239.56;20898334;28;20052;-74
2022/11/03 18:21:41;;;;;;;20.20;9.25;;;;;;;10.52;100.00;99270.13;20976186;28;20048;-73
2022/11/03 18:31:42;;;;;;;22.45;11.98;;;;;;;10.54;100.00;99275.34;20975574;28;20041;-73
2022/11/03 18:41:44;;;;;;;18.42;9.77;;;;;;;10.53;100.00;99256.16;20940080;28;20123;-73
2022/11/03 18:51:46;;;;;;;18.13;9.70;;;;;;;10.47;100.00;99250.28;20896874;28;20064;-73
2022/11/03 19:01:48;;;;;;;23.02;11.02;;;;;;;10.50;100.00;99251.03;20974696;28;20455;-73
2022/11/03 19:11:50;;;;;;;22.67;12.68;;;;;;;10.46;100.00;99228.50;20963371;28;20037;-74
2022/11/03 19:21:52;;;;;;;23.30;12.65;;;;;;;10.42;100.00;99189.38;20972679;28;20416;-73
2022/11/03 19:31:53;;;;;;;22.13;11.88;;;;;;;10.45;100.00;99181.44;20968182;28;20076;-73
2022/11/03 19:52:14;;;;;;;20.38;11.90;;;;;;;10.45;100.00;99143.03;20887793;28;20085;-73
2022/11/03 20:02:16;;;;;;;17.83;10.27;;;;;;;10.43;100.00;99137.00;20887829;28;20068;-75
2022/11/03 20:12:17;;;;;;;53.20;26.30;;;;;;;10.47;100.00;99122.91;20911085;28;20053;-75
2022/11/03 20:22:19;;;;;;;30.33;18.05;;;;;;;10.49;100.00;99102.78;20971456;28;20080;-74
2022/11/03 20:32:20;;;;;;;19.02;10.50;;;;;;;10.48;100.00;99085.34;20970853;28;20576;-74
2022/11/03 20:42:22;;;;;;;20.92;11.60;;;;;;;10.53;100.00;99101.72;20969387;28;20184;-74
2022/11/03 20:52:23;;;;;;;18.52;9.55;;;;;;;10.60;100.00;99093.69;20975856;28;20110;-75
2022/11/03 21:02:24;;;;;;;27.98;12.60;;;;;;;10.58;100.00;99156.53;21010152;28;20481;-76
2022/11/03 21:12:26;;;;;;;21.38;11.63;;;;;;;10.56;100.00;99139.19;21044826;28;20396;-76
2022/11/03 21:22:27;;;;;;;17.63;10.50;;;;;;;10.48;100.00;99106.28;20984944;28;20467;-74
2022/11/03 21:32:48;;;;;;;21.75;12.30;;;;;;;10.58;100.00;99203.63;20982493;28;20045;-78
2022/11/03 21:53:10;;;;;;;18.55;10.32;;;;;;;10.55;100.00;99257.88;20925105;28;20049;-76
2022/11/03 22:03:13;;;;;;;19.42;9.45;;;;;;;10.60;100.00;99230.63;20978304;28;20056;-77
2022/11/03 22:13:14;;;;;;;11.50;7.70;;;;;;;10.59;100.00;99262.06;20950643;28;20998;-77
2022/11/03 22:36:22;;;;;;;8.98;4.93;;;;;;;10.50;100.00;99308.59;20898043;28;20052;-79
2022/11/03 22:54:17;;;;;;;6.30;2.65;;;;;;;10.34;100.00;99364.94;20988380;28;20496;-77
2022/11/03 23:04:18;;;;;;;4.28;1.83;;;;;;;10.31;100.00;99335.44;20987653;28;20181;-78
2022/11/03 23:14:20;;;;;;;6.57;2.33;;;;;;;10.28;100.00;99344.22;20988406;28;20078;-77
2022/11/03 23:34:45;;;;;;;5.07;1.88;;;;;;;10.15;100.00;99380.31;21063673;28;20559;-77
2022/11/03 23:55:07;;;;;;;3.72;1.42;;;;;;;10.19;100.00;99371.47;20982481;28;20052;-78
